Time;durP1;ratioP1;P1;durP2;ratioP2;P2;SDS_P1;SDS_P2;PMS_P1;PMS_P2;Temp;Humidity;BMP_temperature;BMP_pressure;BME280_temperature;BME280_humidity;BME280_pressure;Samples;Min_cycle;Max_cycle;Signal;HPM_P1;HPM_P2
2021/08/20 00:00:00;;;;;;;29.83;10.10;;;14.20;99.90;;;;;;5066907;28;20080;-86
2021/08/20 00:02:31;;;;;;;23.30;9.65;;;14.20;99.90;;;;;;5059591;28;20120;-88
2021/08/20 00:04:56;;;;;;;17.42;8.00;;;14.20;99.90;;;;;;5067471;28;20041;-91
2021/08/20 00:07:22;;;;;;;23.20;8.50;;;14.20;99.90;;;;;;5050917;28;20064;-89
2021/08/20 00:09:56;;;;;;;22.90;9.43;;;14.20;99.90;;;;;;5067047;28;20045;-87
2021/08/20 00:12:22;;;;;;;17.77;8.27;;;14.20;99.90;;;;;;5054136;28;20049;-87
2021/08/20 00:14:48;;;;;;;19.45;8.68;;;14.20;99.90;;;;;;5064536;28;20044;-87
2021/08/20 00:17:15;;;;;;;22.60;9.05;;;14.20;99.90;;;;;;5066908;28;20460;-88
2021/08/20 00:19:40;;;;;;;23.25;8.65;;;14.20;99.90;;;;;;5035015;28;20121;-86
2021/08/20 00:22:07;;;;;;;32.63;12.13;;;14.20;99.90;;;;;;5049356;28;20062;-87
2021/08/20 00:24:35;;;;;;;24.83;8.32;;;14.20;99.90;;;;;;5031918;28;20397;-86
2021/08/20 00:27:02;;;;;;;25.92;10.73;;;14.20;99.90;;;;;;5050841;28;20077;-85
2021/08/20 00:29:28;;;;;;;26.35;11.93;;;14.20;99.90;;;;;;5048981;28;20476;-88
2021/08/20 00:31:53;;;;;;;30.95;12.68;;;14.20;99.90;;;;;;5064957;28;20041;-86
2021/08/20 00:34:19;;;;;;;27.67;11.98;;;14.20;99.90;;;;;;5031685;28;20123;-90
2021/08/20 00:36:45;;;;;;;25.38;11.82;;;14.30;99.90;;;;;;5034953;28;20049;-87
2021/08/20 00:39:12;;;;;;;31.42;10.70;;;14.30;99.90;;;;;;5032780;28;20087;-87
2021/08/20 00:41:40;;;;;;;23.42;10.65;;;14.20;99.90;;;;;;5065021;28;20033;-87
2021/08/20 00:44:06;;;;;;;25.15;10.85;;;14.30;99.90;;;;;;5050170;28;20041;-88
2021/08/20 00:46:32;;;;;;;17.40;8.73;;;14.30;99.90;;;;;;5064885;28;20047;-87
2021/08/20 00:48:58;;;;;;;15.35;7.00;;;14.20;99.90;;;;;;5065609;28;20231;-87
2021/08/20 00:51:26;;;;;;;20.83;8.18;;;14.20;99.90;;;;;;5048357;28;20098;-88
2021/08/20 00:53:54;;;;;;;12.63;5.78;;;14.20;99.90;;;;;;5035028;28;20045;-88
2021/08/20 00:56:21;;;;;;;20.10;7.97;;;14.20;99.90;;;;;;5048750;28;20052;-89
2021/08/20 00:58:48;;;;;;;14.10;6.63;;;14.20;99.90;;;;;;5031567;28;20049;-87
2021/08/20 01:01:14;;;;;;;11.90;5.97;;;14.20;99.90;;;;;;5065665;28;20043;-87
2021/08/20 01:03:40;;;;;;;17.25;6.00;;;14.20;99.90;;;;;;5047521;28;20164;-88
2021/08/20 01:06:06;;;;;;;17.17;6.40;;;14.20;99.90;;;;;;5065550;28;20613;-88
2021/08/20 01:08:35;;;;;;;12.70;6.57;;;14.20;99.90;;;;;;5049454;28;20041;-87
2021/08/20 01:11:03;;;;;;;17.55;7.68;;;14.20;99.90;;;;;;5036017;28;20048;-88
2021/08/20 01:13:34;;;;;;;9.52;5.82;;;14.20;99.90;;;;;;5047820;28;20044;-88
2021/08/20 01:16:04;;;;;;;13.05;6.88;;;14.20;99.90;;;;;;5031869;28;20094;-86
2021/08/20 01:18:32;;;;;;;15.73;7.85;;;14.20;99.90;;;;;;5048104;28;20036;-88
2021/08/20 01:21:01;;;;;;;14.27;7.63;;;14.20;99.90;;;;;;5031764;28;20048;-88
2021/08/20 01:23:28;;;;;;;15.90;8.10;;;14.20;99.90;;;;;;5048885;28;20048;-88
2021/08/20 01:25:57;;;;;;;23.75;9.57;;;14.10;99.90;;;;;;5064870;28;20048;-87
2021/08/20 01:28:24;;;;;;;22.45;10.25;;;14.10;99.90;;;;;;5034287;28;20099;-88
2021/08/20 01:31:01;;;;;;;26.15;10.23;;;14.20;99.90;;;;;;5049806;28;20116;-87
2021/08/20 01:33:28;;;;;;;28.00;9.40;;;14.10;99.90;;;;;;5030760;28;20041;-88
2021/08/20 01:35:54;;;;;;;29.58;12.35;;;14.20;99.90;;;;;;5065102;28;20477;-88
2021/08/20 01:38:20;;;;;;;27.17;10.82;;;14.20;99.90;;;;;;5049408;28;20043;-87
2021/08/20 01:40:46;;;;;;;28.58;10.95;;;14.20;99.90;;;;;;5064469;28;20037;-86
2021/08/20 01:43:11;;;;;;;14.75;9.73;;;14.30;99.90;;;;;;5049145;28;20041;-87
2021/08/20 01:45:38;;;;;;;24.90;11.63;;;14.30;99.90;;;;;;5049138;28;20048;-88
2021/08/20 01:48:04;;;;;;;21.17;11.90;;;14.30;99.90;;;;;;5032631;28;20040;-88
2021/08/20 01:50:31;;;;;;;24.00;10.68;;;14.30;99.90;;;;;;5031686;28;20819;-88
2021/08/20 01:52:57;;;;;;;19.17;10.13;;;14.30;99.90;;;;;;5032223;28;20049;-88
2021/08/20 01:55:22;;;;;;;20.67;11.07;;;14.30;99.90;;;;;;5015938;28;20052;-88
2021/08/20 01:57:50;;;;;;;22.70;10.95;;;14.30;99.90;;;;;;5031764;28;20053;-88
2021/08/20 02:00:17;;;;;;;15.23;9.85;;;14.30;99.90;;;;;;5048688;28;20052;-87
2021/08/20 02:02:45;;;;;;;25.52;10.52;;;14.30;99.90;;;;;;5064486;28;20045;-87
2021/08/20 02:05:11;;;;;;;18.35;10.30;;;14.40;99.90;;;;;;5031468;28;20056;-87
2021/08/20 02:07:38;;;;;;;22.15;10.23;;;14.40;99.90;;;;;;5064418;28;20044;-86
2021/08/20 02:10:06;;;;;;;25.75;11.55;;;14.40;99.90;;;;;;5055469;28;20125;-86
2021/08/20 02:12:32;;;;;;;21.35;11.07;;;14.40;99.90;;;;;;5059878;28;20037;-87
2021/08/20 02:14:58;;;;;;;22.00;11.88;;;14.40;99.90;;;;;;5049287;28;20542;-87
2021/08/20 02:17:23;;;;;;;26.52;12.02;;;14.40;99.90;;;;;;5032403;28;20485;-86
2021/08/20 02:19:49;;;;;;;24.33;12.05;;;14.30;99.90;;;;;;5067386;28;20512;-87
2021/08/20 02:22:16;;;;;;;24.50;11.30;;;14.30;99.90;;;;;;5068784;28;20041;-86
2021/08/20 02:24:41;;;;;;;26.95;12.68;;;14.30;99.90;;;;;;5034106;28;20029;-87
2021/08/20 02:27:07;;;;;;;27.23;13.82;;;14.30;99.90;;;;;;5019379;28;20079;-88
2021/08/20 02:29:33;;;;;;;24.75;13.77;;;14.30;99.90;;;;;;5051435;28;20068;-86
2021/08/20 02:31:59;;;;;;;22.13;13.55;;;14.30;99.90;;;;;;5068692;28;20102;-87
2021/08/20 02:34:25;;;;;;;22.50;13.77;;;14.30;99.90;;;;;;5018625;28;20041;-88
2021/08/20 02:36:51;;;;;;;26.17;13.73;;;14.30;99.90;;;;;;5051933;28;20539;-88
2021/08/20 02:39:16;;;;;;;32.95;15.48;;;14.30;99.90;;;;;;5051827;28;20488;-87
2021/08/20 02:41:42;;;;;;;38.58;16.92;;;14.40;99.90;;;;;;5034075;28;20053;-88
2021/08/20 02:44:08;;;;;;;34.70;16.02;;;14.40;99.90;;;;;;5068421;28;20120;-86
2021/08/20 02:46:34;;;;;;;36.90;16.17;;;14.40;99.90;;;;;;5034772;28;20500;-87
2021/08/20 02:48:59;;;;;;;33.70;17.00;;;14.40;99.90;;;;;;5052639;28;20443;-87
2021/08/20 02:51:26;;;;;;;42.30;18.98;;;14.30;99.90;;;;;;5050858;28;20526;-88
2021/08/20 02:53:52;;;;;;;40.05;18.73;;;14.40;99.90;;;;;;5034226;28;20919;-88
2021/08/20 02:56:19;;;;;;;32.30;16.90;;;14.40;99.90;;;;;;5068005;28;20068;-86
2021/08/20 02:58:45;;;;;;;39.58;18.77;;;14.40;99.90;;;;;;5034167;28;20525;-86
2021/08/20 03:01:11;;;;;;;45.03;21.05;;;14.40;99.90;;;;;;5067698;28;20055;-87
2021/08/20 03:03:38;;;;;;;44.30;21.20;;;14.40;99.90;;;;;;5050228;28;20044;-86
2021/08/20 03:06:03;;;;;;;35.30;19.08;;;14.40;99.90;;;;;;5051260;28;20044;-86
2021/08/20 03:08:29;;;;;;;46.47;21.30;;;14.40;99.90;;;;;;5018151;28;20045;-88
2021/08/20 03:10:55;;;;;;;60.83;23.95;;;14.40;99.90;;;;;;5067063;28;20511;-87
2021/08/20 03:13:21;;;;;;;46.97;23.05;;;14.50;99.90;;;;;;5067799;28;20049;-87
2021/08/20 03:15:47;;;;;;;45.20;22.15;;;14.50;99.90;;;;;;5050679;28;20047;-88
2021/08/20 03:18:13;;;;;;;59.60;23.13;;;14.50;99.90;;;;;;5051307;28;20115;-87
2021/08/20 03:20:39;;;;;;;56.25;22.10;;;14.50;99.90;;;;;;5017505;28;20476;-87
2021/08/20 03:23:05;;;;;;;47.40;24.30;;;14.50;99.90;;;;;;5067387;28;20047;-87
2021/08/20 03:25:31;;;;;;;49.40;23.67;;;14.50;99.90;;;;;;5051961;28;20061;-88
2021/08/20 03:27:57;;;;;;;47.95;23.90;;;14.50;99.90;;;;;;5016358;28;20065;-87
2021/08/20 03:30:22;;;;;;;51.35;25.33;;;14.50;99.90;;;;;;5052099;28;20041;-87
2021/08/20 03:32:48;;;;;;;60.85;25.55;;;14.60;99.90;;;;;;5036094;28;20053;-88
2021/08/20 03:35:14;;;;;;;46.13;25.17;;;14.60;99.90;;;;;;5067187;28;20821;-88
2021/08/20 03:37:41;;;;;;;55.15;25.70;;;14.50;99.90;;;;;;5017417;28;20118;-88
2021/08/20 03:40:07;;;;;;;56.78;26.40;;;14.60;99.90;;;;;;5050690;28;20044;-88
2021/08/20 03:42:33;;;;;;;53.78;26.52;;;14.60;99.90;;;;;;5034161;28;20045;-90
2021/08/20 03:44:59;;;;;;;58.58;26.73;;;14.60;99.90;;;;;;5033650;28;20504;-87
2021/08/20 03:47:25;;;;;;;56.03;26.80;;;14.70;99.90;;;;;;5067187;28;20101;-86
2021/08/20 03:49:51;;;;;;;57.05;25.70;;;14.60;99.90;;;;;;5066061;28;20072;-87
2021/08/20 03:52:17;;;;;;;56.40;26.00;;;14.70;99.90;;;;;;5030631;28;20048;-86
2021/08/20 03:54:43;;;;;;;51.83;26.20;;;14.70;99.90;;;;;;5030550;28;20037;-87
2021/08/20 03:57:08;;;;;;;52.30;25.80;;;14.70;99.90;;;;;;5044763;28;20144;-86
2021/08/20 03:59:34;;;;;;;50.88;26.35;;;14.70;99.90;;;;;;5030172;28;20100;-88
2021/08/20 04:02:04;;;;;;;59.55;27.77;;;14.70;99.90;;;;;;5062710;28;20042;-86
2021/08/20 04:04:30;;;;;;;;;;;14.70;99.90;;;;;;5047179;28;20044;-87
2021/08/20 04:06:56;;;;;;;53.10;26.55;;;14.70;99.90;;;;;;5030457;28;20518;-87
2021/08/20 04:09:23;;;;;;;60.10;29.38;;;14.70;99.90;;;;;;5046483;28;20041;-87
2021/08/20 04:11:49;;;;;;;61.80;27.67;;;14.70;99.90;;;;;;5062125;28;20049;-86
2021/08/20 04:14:15;;;;;;;54.00;29.23;;;14.70;99.90;;;;;;5062488;28;20041;-86
2021/08/20 04:16:42;;;;;;;53.42;27.33;;;14.70;99.90;;;;;;5029973;28;20124;-85
2021/08/20 04:19:08;;;;;;;58.53;29.75;;;14.70;99.90;;;;;;5046568;28;20053;-87
2021/08/20 04:21:34;;;;;;;57.08;28.13;;;14.70;99.90;;;;;;5032624;28;20112;-85
2021/08/20 04:24:00;;;;;;;52.13;27.98;;;14.70;99.90;;;;;;5028710;28;20772;-86
2021/08/20 04:26:26;;;;;;;56.90;26.60;;;14.70;99.90;;;;;;5030691;28;20107;-84
2021/08/20 04:28:53;;;;;;;55.63;27.05;;;14.60;99.90;;;;;;5030083;28;20037;-86
2021/08/20 04:31:19;;;;;;;48.83;26.33;;;14.70;99.90;;;;;;5030539;28;20040;-87
2021/08/20 04:33:45;;;;;;;54.30;26.33;;;14.70;99.90;;;;;;5061753;28;20049;-86
2021/08/20 04:36:12;;;;;;;53.50;26.27;;;14.70;99.90;;;;;;5062483;28;20053;-87
2021/08/20 04:38:39;;;;;;;60.20;27.63;;;14.60;99.90;;;;;;5028000;28;20118;-89
2021/08/20 04:41:06;;;;;;;50.47;26.88;;;14.60;99.90;;;;;;5029407;28;20038;-85
2021/08/20 04:43:32;;;;;;;61.85;29.08;;;14.50;99.90;;;;;;5045348;28;20041;-86
2021/08/20 04:45:57;;;;;;;54.65;28.67;;;14.50;99.90;;;;;;5029956;28;20049;-85
2021/08/20 04:48:24;;;;;;;58.22;28.30;;;14.50;99.90;;;;;;5045349;28;20401;-86
2021/08/20 04:50:52;;;;;;;58.00;28.67;;;14.50;99.90;;;;;;5045175;28;20037;-86
2021/08/20 04:53:22;;;;;;;58.40;27.73;;;14.50;99.90;;;;;;5045481;28;20058;-85
2021/08/20 04:55:47;;;;;;;;;;;14.50;99.90;;;;;;5012655;28;20506;-85
2021/08/20 04:58:13;;;;;;;56.67;28.35;;;14.50;99.90;;;;;;5028977;28;19920;-85
2021/08/20 05:00:43;;;;;;;58.47;27.35;;;14.50;99.90;;;;;;5028846;28;20049;-87
2021/08/20 05:03:09;;;;;;;51.40;26.13;;;14.50;99.90;;;;;;5030421;28;20037;-86
2021/08/20 05:05:35;;;;;;;57.38;27.55;;;14.50;99.90;;;;;;5029020;28;20049;-85
2021/08/20 05:08:01;;;;;;;52.55;27.23;;;14.60;99.90;;;;;;5027366;28;20059;-86
2021/08/20 05:10:30;;;;;;;53.50;27.02;;;14.60;99.90;;;;;;5049546;28;20045;-86
2021/08/20 05:12:56;;;;;;;46.13;26.23;;;14.60;99.90;;;;;;5060219;28;20043;-85
2021/08/20 05:15:26;;;;;;;52.72;27.00;;;14.70;99.90;;;;;;5045511;28;20288;-85
2021/08/20 05:17:56;;;;;;;48.88;26.73;;;14.70;99.90;;;;;;5044115;28;20041;-86
2021/08/20 05:20:22;;;;;;;51.72;27.63;;;14.80;99.90;;;;;;5028258;28;20144;-86
2021/08/20 05:22:51;;;;;;;49.92;28.10;;;14.80;99.90;;;;;;5028804;28;20099;-87
2021/08/20 05:25:17;;;;;;;49.72;26.75;;;14.80;99.90;;;;;;5061985;28;20561;-87
2021/08/20 05:27:44;;;;;;;56.22;27.83;;;14.90;99.90;;;;;;5028025;28;20052;-88
2021/08/20 05:30:11;;;;;;;53.83;26.83;;;14.80;99.90;;;;;;5061683;28;20397;-87
2021/08/20 05:32:37;;;;;;;49.97;26.23;;;14.80;99.90;;;;;;5061727;28;20113;-86
2021/08/20 05:35:08;;;;;;;53.17;27.42;;;14.90;99.90;;;;;;5060877;28;20232;-86
2021/08/20 05:37:35;;;;;;;47.33;26.42;;;14.90;99.90;;;;;;5028237;28;20490;-86
2021/08/20 05:40:02;;;;;;;49.10;27.17;;;14.90;99.90;;;;;;5011103;28;20067;-88
2021/08/20 05:42:28;;;;;;;48.10;26.65;;;15.00;99.90;;;;;;5028665;28;20477;-87
2021/08/20 05:44:54;;;;;;;47.38;26.25;;;15.00;99.90;;;;;;5060252;28;20150;-86
2021/08/20 05:47:19;;;;;;;50.45;25.63;;;15.00;99.90;;;;;;5061746;28;20057;-86
2021/08/20 05:49:45;;;;;;;48.58;25.02;;;15.00;99.90;;;;;;5044517;28;20069;-88
2021/08/20 05:52:11;;;;;;;55.75;28.27;;;14.90;99.90;;;;;;5047148;28;20065;-88
2021/08/20 05:54:37;;;;;;;48.15;26.40;;;14.90;99.90;;;;;;5061034;28;20052;-86
2021/08/20 05:57:03;;;;;;;47.63;27.60;;;14.90;99.90;;;;;;5043949;28;20077;-86
2021/08/20 05:59:29;;;;;;;52.28;26.40;;;14.80;99.90;;;;;;5029438;28;20038;-86
2021/08/20 06:01:55;;;;;;;46.00;25.55;;;14.80;99.90;;;;;;5027367;28;20052;-87
2021/08/20 06:04:20;;;;;;;59.33;27.17;;;14.70;99.90;;;;;;5028210;28;20076;-86
2021/08/20 06:06:47;;;;;;;52.90;26.40;;;14.70;99.90;;;;;;5029155;28;20049;-87
2021/08/20 06:09:12;;;;;;;47.50;27.25;;;14.70;99.90;;;;;;5025146;28;20033;-86
2021/08/20 06:11:38;;;;;;;56.55;27.52;;;14.70;99.90;;;;;;5017930;28;20056;-86
2021/08/20 06:14:04;;;;;;;53.15;27.10;;;14.70;99.90;;;;;;5027739;28;20456;-87
2021/08/20 06:16:30;;;;;;;62.90;28.90;;;14.80;99.90;;;;;;5044652;28;20052;-87
2021/08/20 06:18:56;;;;;;;49.80;26.63;;;14.90;99.90;;;;;;5060393;28;20108;-88
2021/08/20 06:21:22;;;;;;;49.80;27.20;;;15.00;99.90;;;;;;5028273;28;20038;-86
2021/08/20 06:23:48;;;;;;;49.63;26.95;;;15.20;99.90;;;;;;5026999;28;20045;-88
2021/08/20 06:26:14;;;;;;;52.83;27.35;;;15.30;99.90;;;;;;5027261;28;20053;-87
2021/08/20 06:28:40;;;;;;;41.63;24.30;;;15.50;99.90;;;;;;5061144;28;20044;-87
2021/08/20 06:31:06;;;;;;;36.85;22.85;;;15.60;99.90;;;;;;5060333;28;20401;-87
2021/08/20 06:33:33;;;;;;;44.88;23.20;;;15.60;99.90;;;;;;5027626;28;20095;-86
2021/08/20 06:35:59;;;;;;;42.28;23.15;;;15.70;99.90;;;;;;5028374;28;20041;-86
2021/08/20 06:38:25;;;;;;;37.88;21.25;;;15.90;99.90;;;;;;5028042;28;20034;-86
2021/08/20 06:40:51;;;;;;;41.08;21.15;;;16.00;99.90;;;;;;5043992;28;20100;-88
2021/08/20 06:43:17;;;;;;;38.03;20.50;;;16.10;99.90;;;;;;5027210;28;20112;-86
2021/08/20 06:45:44;;;;;;;34.10;19.67;;;16.10;99.90;;;;;;5060861;28;20058;-87
2021/08/20 06:48:09;;;;;;;31.48;20.75;;;16.20;99.90;;;;;;5028296;28;20048;-87
2021/08/20 06:50:41;;;;;;;33.33;19.55;;;16.30;99.90;;;;;;5060149;28;20041;-86
2021/08/20 06:53:07;;;;;;;32.72;19.85;;;16.30;99.90;;;;;;5041520;28;20053;-86
2021/08/20 06:55:33;;;;;;;30.50;18.90;;;16.40;99.90;;;;;;5063439;28;20044;-86
2021/08/20 06:57:59;;;;;;;28.48;19.15;;;16.50;99.90;;;;;;5030500;28;20087;-86
2021/08/20 07:00:25;;;;;;;30.63;19.67;;;16.60;99.90;;;;;;5048237;28;20393;-86
2021/08/20 07:02:50;;;;;;;29.67;18.73;;;16.70;99.90;;;;;;5050611;28;20053;-87
2021/08/20 07:05:17;;;;;;;35.45;17.95;;;16.70;99.90;;;;;;5066744;28;20037;-86
2021/08/20 07:07:44;;;;;;;32.85;19.42;;;16.80;99.90;;;;;;5052343;28;20128;-86
2021/08/20 07:10:15;;;;;;;34.00;19.48;;;16.90;99.90;;;;;;5048484;28;20141;-86
2021/08/20 07:12:41;;;;;;;31.15;18.75;;;16.90;99.90;;;;;;5051737;28;20056;-86
2021/08/20 07:15:09;;;;;;;26.35;17.48;;;17.00;99.90;;;;;;5066191;28;20033;-85
2021/08/20 07:17:35;;;;;;;29.20;17.10;;;17.10;99.90;;;;;;5034376;28;20622;-85
2021/08/20 07:20:01;;;;;;;31.15;17.95;;;17.10;99.90;;;;;;5050727;28;20037;-88
2021/08/20 07:22:27;;;;;;;31.98;17.48;;;17.20;99.90;;;;;;5033716;28;20120;-85
2021/08/20 07:24:53;;;;;;;32.08;17.85;;;17.30;99.90;;;;;;5037065;28;20645;-87
2021/08/20 07:27:19;;;;;;;40.40;19.05;;;17.30;99.90;;;;;;5051548;28;20459;-86
2021/08/20 07:29:46;;;;;;;28.50;17.35;;;17.30;99.90;;;;;;5033832;28;20075;-87
2021/08/20 07:32:13;;;;;;;26.15;17.52;;;17.40;99.90;;;;;;5050487;28;20288;-86
2021/08/20 07:34:39;;;;;;;27.65;17.35;;;17.50;99.90;;;;;;5032488;28;20033;-87
2021/08/20 07:37:06;;;;;;;27.20;16.80;;;17.60;99.90;;;;;;5032613;28;20507;-86
2021/08/20 07:39:32;;;;;;;23.90;16.73;;;17.70;99.90;;;;;;5055677;28;20044;-84
2021/08/20 07:41:59;;;;;;;23.65;15.82;;;17.70;99.90;;;;;;5049651;28;20386;-87
2021/08/20 07:44:25;;;;;;;24.63;15.10;;;17.70;99.90;;;;;;5049506;28;20044;-84
2021/08/20 07:46:51;;;;;;;27.48;15.23;;;17.80;99.90;;;;;;5066627;28;20041;-84
2021/08/20 07:49:18;;;;;;;22.05;15.32;;;17.90;99.90;;;;;;5048682;28;20592;-85
2021/08/20 07:51:44;;;;;;;24.27;14.23;;;17.90;99.90;;;;;;5050942;28;20432;-85
2021/08/20 07:54:09;;;;;;;24.25;14.60;;;18.10;99.90;;;;;;5065090;28;20041;-86
2021/08/20 07:56:35;;;;;;;22.23;14.93;;;18.20;99.90;;;;;;5049211;28;20124;-85
2021/08/20 07:59:01;;;;;;;24.05;15.13;;;18.30;99.90;;;;;;5052199;28;20465;-85
2021/08/20 08:01:27;;;;;;;22.88;14.30;;;18.30;99.90;;;;;;5042388;28;20480;-84
2021/08/20 08:03:57;;;;;;;18.67;14.10;;;18.30;99.90;;;;;;5053425;28;20041;-85
2021/08/20 08:06:26;;;;;;;20.13;13.70;;;18.30;99.90;;;;;;5049087;28;20052;-85
2021/08/20 08:08:53;;;;;;;25.73;14.57;;;18.40;99.90;;;;;;5049895;28;20079;-85
2021/08/20 08:11:20;;;;;;;21.50;13.60;;;18.50;99.90;;;;;;5048523;28;20037;-85
2021/08/20 08:13:46;;;;;;;19.00;13.52;;;18.60;99.90;;;;;;5050679;28;20068;-84
2021/08/20 08:16:12;;;;;;;25.73;13.65;;;18.70;99.90;;;;;;5049878;28;20037;-85
2021/08/20 08:18:38;;;;;;;23.88;13.93;;;18.80;99.90;;;;;;5032696;28;20049;-84
2021/08/20 08:21:04;;;;;;;23.17;13.15;;;18.90;99.90;;;;;;5065224;28;20052;-85
2021/08/20 08:23:29;;;;;;;17.58;11.27;;;19.00;99.90;;;;;;5065687;28;20064;-80
2021/08/20 08:25:55;;;;;;;19.00;12.32;;;19.00;99.90;;;;;;5050114;28;20041;-83
2021/08/20 08:28:22;;;;;;;20.05;12.52;;;18.80;99.90;;;;;;5029202;28;20100;-83
2021/08/20 08:30:49;;;;;;;24.73;11.45;;;18.90;99.90;;;;;;5065093;28;20133;-80
2021/08/20 08:33:17;;;;;;;20.25;11.50;;;18.80;99.90;;;;;;5049778;28;20052;-83
2021/08/20 08:35:44;;;;;;;21.60;11.38;;;18.80;99.90;;;;;;5049892;28;20041;-84
2021/08/20 08:38:15;;;;;;;18.77;12.77;;;19.00;99.90;;;;;;5035649;28;20072;-83
2021/08/20 08:40:46;;;;;;;21.98;11.30;;;19.10;99.90;;;;;;5031515;28;20049;-82
2021/08/20 08:43:13;;;;;;;16.60;11.82;;;19.20;99.90;;;;;;5049016;28;20084;-82
2021/08/20 08:45:39;;;;;;;18.80;10.77;;;19.40;99.90;;;;;;5049420;28;20048;-83
2021/08/20 08:48:09;;;;;;;18.40;10.02;;;19.70;99.90;;;;;;5048912;28;20041;-85
2021/08/20 08:50:35;;;;;;;17.35;9.20;;;20.00;99.90;;;;;;5045879;28;20037;-83
2021/08/20 08:53:02;;;;;;;20.95;10.35;;;20.00;99.90;;;;;;5049613;28;20071;-84
2021/08/20 08:55:28;;;;;;;14.93;8.23;;;20.10;99.90;;;;;;5048838;28;20045;-83
2021/08/20 08:57:54;;;;;;;14.65;8.77;;;20.10;99.90;;;;;;5031780;28;20049;-82
2021/08/20 09:00:37;;;;;;;17.77;9.48;;;20.00;99.90;;;;;;5048244;28;20041;-82
2021/08/20 09:03:04;;;;;;;16.65;9.48;;;20.00;99.90;;;;;;5047059;28;20102;-85
2021/08/20 09:05:44;;;;;;;19.15;10.20;;;19.90;99.90;;;;;;5058458;28;20041;-82
2021/08/20 09:08:18;;;;;;;16.67;10.52;;;19.90;99.90;;;;;;5040374;28;20048;-81
2021/08/20 09:10:55;;;;;;;15.15;10.63;;;19.90;99.90;;;;;;5034950;28;20049;-82
2021/08/20 09:13:22;;;;;;;19.67;11.55;;;19.80;99.90;;;;;;5063783;28;20044;-82
2021/08/20 09:16:08;;;;;;;15.68;11.30;;;19.90;99.90;;;;;;5048539;28;20049;-83
2021/08/20 09:18:34;;;;;;;20.70;12.02;;;20.10;99.90;;;;;;5044386;28;20052;-81
2021/08/20 09:21:00;;;;;;;15.05;11.30;;;20.30;99.90;;;;;;5056167;28;20048;-85
2021/08/20 09:23:27;;;;;;;16.23;11.02;;;20.40;99.90;;;;;;5047039;28;20033;-84
2021/08/20 09:25:54;;;;;;;20.88;11.30;;;20.50;99.90;;;;;;5047433;28;20050;-84
2021/08/20 09:28:27;;;;;;;16.65;9.98;;;20.50;99.90;;;;;;5054625;28;20103;-84
2021/08/20 09:30:57;;;;;;;15.60;10.45;;;20.50;99.90;;;;;;5031171;28;20480;-84
2021/08/20 09:33:28;;;;;;;13.88;10.38;;;20.60;99.90;;;;;;5047317;28;20489;-84
2021/08/20 09:36:00;;;;;;;13.73;8.18;;;20.70;99.90;;;;;;5048905;28;20125;-84
2021/08/20 09:38:28;;;;;;;16.38;8.60;;;20.70;99.90;;;;;;5047962;28;20037;-84
2021/08/20 09:40:58;;;;;;;10.60;7.95;;;20.80;99.90;;;;;;5048710;28;20053;-84
2021/08/20 09:43:31;;;;;;;13.52;7.22;;;20.90;99.90;;;;;;5047922;28;20041;-84
2021/08/20 09:46:18;;;;;;;8.80;6.57;;;20.90;99.90;;;;;;5048719;28;20120;-84
2021/08/20 09:48:48;;;;;;;9.70;6.43;;;21.00;99.90;;;;;;5030775;28;20050;-84
2021/08/20 09:51:35;;;;;;;6.93;5.07;;;21.30;99.90;;;;;;5047750;28;20045;-84
2021/08/20 09:54:03;;;;;;;12.00;5.00;;;21.50;99.90;;;;;;5048776;28;20052;-85
2021/08/20 09:56:29;;;;;;;5.47;4.97;;;21.60;99.90;;;;;;5050734;28;20043;-84
2021/08/20 09:58:58;;;;;;;9.30;5.97;;;21.50;99.90;;;;;;5048753;28;20049;-85
2021/08/20 10:01:26;;;;;;;5.53;3.92;;;21.30;99.90;;;;;;5047607;28;20052;-85
2021/08/20 10:03:53;;;;;;;7.15;4.00;;;21.20;99.90;;;;;;5048209;28;20037;-84
2021/08/20 10:06:20;;;;;;;6.32;3.83;;;21.20;99.90;;;;;;5026985;28;20049;-85
2021/08/20 10:08:47;;;;;;;8.85;5.95;;;21.10;99.90;;;;;;5048436;28;20059;-85
2021/08/20 10:11:16;;;;;;;12.07;5.47;;;21.20;99.90;;;;;;5033441;28;20440;-85
2021/08/20 10:13:45;;;;;;;9.52;5.57;;;21.30;99.90;;;;;;5047374;28;20116;-85
2021/08/20 10:16:12;;;;;;;11.27;5.97;;;21.50;99.90;;;;;;5062939;28;20052;-85
2021/08/20 10:18:41;;;;;;;11.05;5.80;;;21.60;99.90;;;;;;5043321;28;20049;-85
2021/08/20 10:21:08;;;;;;;11.07;7.25;;;21.70;99.90;;;;;;5047350;28;20060;-85
2021/08/20 10:23:35;;;;;;;13.70;7.20;;;21.60;99.90;;;;;;5054212;28;20119;-85
2021/08/20 10:26:03;;;;;;;20.90;8.07;;;21.60;99.90;;;;;;5042206;28;20041;-85
2021/08/20 10:28:31;;;;;;;16.13;7.43;;;21.40;99.90;;;;;;5057382;28;20048;-85
2021/08/20 10:30:57;;;;;;;16.20;8.30;;;21.40;99.90;;;;;;5041148;28;20053;-85
2021/08/20 10:33:34;;;;;;;15.88;9.23;;;21.20;99.90;;;;;;5046082;28;20056;-85
2021/08/20 10:36:01;;;;;;;13.45;9.30;;;21.00;99.90;;;;;;5047254;28;20040;-86
2021/08/20 10:38:34;;;;;;;14.38;9.88;;;21.10;99.90;;;;;;5046763;28;20095;-84
2021/08/20 10:41:12;;;;;;;18.85;11.07;;;21.10;99.90;;;;;;5042587;28;20497;-84
2021/08/20 10:43:56;;;;;;;19.60;10.80;;;21.20;99.90;;;;;;5051064;28;20549;-85
2021/08/20 10:46:31;;;;;;;17.42;10.48;;;21.40;99.90;;;;;;5032644;28;20044;-85
2021/08/20 10:49:17;;;;;;;18.35;10.80;;;21.50;99.90;;;;;;5057424;28;20044;-85
2021/08/20 10:51:58;;;;;;;14.73;10.60;;;21.70;99.90;;;;;;5063163;28;20654;-85
2021/08/20 10:54:30;;;;;;;19.92;10.68;;;21.80;99.90;;;;;;5041094;28;20052;-85
2021/08/20 10:57:06;;;;;;;20.10;11.27;;;21.80;99.90;;;;;;5052703;28;20063;-86
2021/08/20 10:59:45;;;;;;;16.15;10.05;;;21.80;99.90;;;;;;5065810;28;20041;-86
2021/08/20 11:02:21;;;;;;;17.83;10.18;;;21.90;99.90;;;;;;5050403;28;20734;-86
2021/08/20 11:05:04;;;;;;;14.73;10.57;;;22.20;99.90;;;;;;5066473;28;20063;-86
2021/08/20 11:07:36;;;;;;;12.57;8.65;;;22.40;99.90;;;;;;5064884;28;20048;-86
2021/08/20 11:10:08;;;;;;;12.98;8.75;;;22.60;99.90;;;;;;5032600;28;20094;-86
2021/08/20 11:12:57;;;;;;;14.10;9.30;;;22.70;99.90;;;;;;5035184;28;20551;-86
2021/08/20 11:15:23;;;;;;;14.83;7.70;;;22.80;99.90;;;;;;5032409;28;20064;-86
2021/08/20 11:17:59;;;;;;;13.40;7.75;;;22.80;99.90;;;;;;5031975;28;20492;-86
2021/08/20 11:20:27;;;;;;;13.98;8.70;;;22.70;99.90;;;;;;5032620;28;20069;-85
2021/08/20 11:23:07;;;;;;;13.82;8.82;;;22.60;99.90;;;;;;5051304;28;20052;-85
2021/08/20 11:25:41;;;;;;;13.77;8.82;;;22.50;99.90;;;;;;5065583;28;20044;-85
2021/08/20 11:28:08;;;;;;;10.75;8.00;;;22.50;99.90;;;;;;5042194;28;20041;-85
2021/08/20 11:30:37;;;;;;;9.27;7.22;;;22.50;99.90;;;;;;5050482;28;20053;-86
2021/08/20 11:33:18;;;;;;;7.65;6.70;;;22.40;99.90;;;;;;5033687;28;20053;-86
2021/08/20 11:35:47;;;;;;;15.77;6.95;;;22.40;99.90;;;;;;5032715;28;20077;-87
2021/08/20 11:38:20;;;;;;;10.43;7.80;;;22.30;99.90;;;;;;5050642;28;20744;-86
2021/08/20 11:40:48;;;;;;;12.52;6.88;;;22.00;99.90;;;;;;5029987;28;20091;-86
2021/08/20 11:43:13;;;;;;;10.70;6.25;;;22.30;99.90;;;;;;5055235;28;20162;-85
2021/08/20 11:45:39;;;;;;;9.73;7.18;;;22.30;99.90;;;;;;5032090;28;20603;-85
2021/08/20 11:48:05;;;;;;;10.40;7.97;;;22.20;99.90;;;;;;5031986;28;20052;-85
2021/08/20 11:50:34;;;;;;;11.30;8.25;;;22.10;99.90;;;;;;5031841;28;20048;-86
2021/08/20 11:53:00;;;;;;;11.13;7.97;;;21.90;99.90;;;;;;5050391;28;20052;-86
2021/08/20 11:55:26;;;;;;;13.75;8.45;;;21.90;99.90;;;;;;5048402;28;20058;-86
2021/08/20 11:57:52;;;;;;;10.88;8.13;;;21.90;99.90;;;;;;5051808;28;20037;-86
2021/08/20 12:00:18;;;;;;;10.82;7.30;;;21.80;99.90;;;;;;5050391;28;20044;-86
2021/08/20 12:02:45;;;;;;;10.48;8.18;;;21.70;99.90;;;;;;5032103;28;20049;-86
2021/08/20 12:05:21;;;;;;;15.07;8.52;;;21.80;99.90;;;;;;5032605;28;20037;-85
2021/08/20 12:07:48;;;;;;;12.35;8.27;;;21.70;99.90;;;;;;5050155;28;20131;-86
2021/08/20 12:10:17;;;;;;;11.80;8.88;;;21.70;99.90;;;;;;5039627;28;20045;-85
2021/08/20 12:12:46;;;;;;;13.70;8.82;;;21.70;99.90;;;;;;5045690;28;20050;-85
2021/08/20 12:15:13;;;;;;;12.23;8.18;;;21.80;99.90;;;;;;5032306;28;20041;-86
2021/08/20 12:17:39;;;;;;;17.70;9.15;;;21.80;99.90;;;;;;5049156;28;20160;-85
2021/08/20 12:20:18;;;;;;;15.35;9.50;;;21.80;99.90;;;;;;5049149;28;20435;-86
2021/08/20 12:22:50;;;;;;;16.27;8.77;;;21.80;99.90;;;;;;5045184;28;20045;-85
2021/08/20 12:25:24;;;;;;;16.40;8.75;;;21.70;99.90;;;;;;5064824;28;20109;-86
2021/08/20 12:27:51;;;;;;;23.95;11.02;;;21.50;99.90;;;;;;5062517;28;20051;-86
2021/08/20 12:30:23;;;;;;;28.63;11.52;;;21.30;99.90;;;;;;5050075;28;20033;-85
2021/08/20 12:32:57;;;;;;;24.15;12.05;;;21.20;99.90;;;;;;5048117;28;20049;-86